Benson, United Kingdom
Current Conditions -  °F | °C
As of 5:50 PM on Thursday 27 Nov 2014 (Local Time) from EGUB Reporting Station
Broken Clouds Broken Clouds  
Wind Chill: 46°   Ceiling: 5000
Heat Index: 48°   Visibility: 6mi
Dew Point: 45°   Wind: 6mph
Humidity: 87%   Direction: 170°S
Pressure: 29.56"   Gusts: NA
Location:  51.62°N, 1.11°W
Report Text: EGUB 271750Z 17005KT 9999 FEW035 BKN050 09/07 Q1001 BLU TEMPO SCT015 WHT
Loading
Personal Weather Stations






























Interactive Weather Map New forecast layout! Learn more

10-Day Weather Forecast

Advertisements
Track Severe Weather on mobile